Time;durP1;ratioP1;P1;durP2;ratioP2;P2;SDS_P1;SDS_P2;PMS_P1;PMS_P2;Temp;Humidity;BMP_temperature;BMP_pressure;BME280_temperature;BME280_humidity;BME280_pressure;Samples;Min_cycle;Max_cycle;Signal;HPM_P1;HPM_P2
2021/04/28 00:00:44;;;;;;;6.18;4.40;;;;;;;;;;5077080;28;20295;-63
2021/04/28 00:03:11;;;;;;;8.10;5.05;;;;;;;;;;5076653;28;20723;-63
2021/04/28 00:05:38;;;;;;;9.40;4.50;;;;;;;;;;5076793;28;20208;-63
2021/04/28 00:08:06;;;;;;;9.80;4.65;;;;;;;;;;5076327;28;20196;-63
2021/04/28 00:10:34;;;;;;;6.68;5.18;;;;;;;;;;5076655;28;20219;-64
2021/04/28 00:13:01;;;;;;;7.55;5.00;;;;;;;;;;5076395;28;20683;-63
2021/04/28 00:15:29;;;;;;;8.00;4.85;;;;;;;;;;5076415;28;20275;-62
2021/04/28 00:17:56;;;;;;;13.30;5.35;;;;;;;;;;5074993;28;20204;-63
2021/04/28 00:20:23;;;;;;;7.22;4.10;;;;;;;;;;5076674;28;20586;-62
2021/04/28 00:22:50;;;;;;;14.20;4.70;;;;;;;;;;5076585;28;20278;-63
2021/04/28 00:25:19;;;;;;;7.22;5.20;;;;;;;;;;5076567;28;20200;-63
2021/04/28 00:27:45;;;;;;;5.93;4.55;;;;;;;;;;5075965;28;20216;-63
2021/04/28 00:30:14;;;;;;;4.82;4.30;;;;;;;;;;5076244;28;20212;-63
2021/04/28 00:32:41;;;;;;;9.75;4.70;;;;;;;;;;5076204;28;20699;-63
2021/04/28 00:35:09;;;;;;;8.38;4.47;;;;;;;;;;5076189;28;20278;-63
2021/04/28 00:37:36;;;;;;;7.47;4.10;;;;;;;;;;5077494;28;20659;-63
2021/04/28 00:40:07;;;;;;;5.28;4.70;;;;;;;;;;5075904;28;20208;-62
2021/04/28 00:42:35;;;;;;;6.20;5.18;;;;;;;;;;5076085;28;20211;-63
2021/04/28 00:45:02;;;;;;;5.32;4.55;;;;;;;;;;5075729;28;20283;-63
2021/04/28 00:47:29;;;;;;;7.32;4.70;;;;;;;;;;5075942;28;20247;-63
2021/04/28 00:49:55;;;;;;;9.85;4.70;;;;;;;;;;5075760;28;20275;-63
2021/04/28 00:52:22;;;;;;;10.48;4.63;;;;;;;;;;5075804;28;20762;-63
2021/04/28 00:54:49;;;;;;;8.30;4.20;;;;;;;;;;5075910;28;20299;-63
2021/04/28 00:57:15;;;;;;;7.82;5.30;;;;;;;;;;5075597;28;20647;-63
2021/04/28 00:59:42;;;;;;;5.70;4.60;;;;;;;;;;5075474;28;20243;-62
2021/04/28 01:02:09;;;;;;;8.35;5.35;;;;;;;;;;5076170;28;20274;-64
2021/04/28 01:04:35;;;;;;;5.05;4.50;;;;;;;;;;5075462;28;20192;-64
2021/04/28 01:07:02;;;;;;;7.28;4.85;;;;;;;;;;5075452;28;20298;-64
2021/04/28 01:09:29;;;;;;;9.80;4.88;;;;;;;;;;5075282;28;20283;-64
2021/04/28 01:11:56;;;;;;;5.95;4.80;;;;;;;;;;5075467;28;20192;-65
2021/04/28 01:14:23;;;;;;;6.70;4.60;;;;;;;;;;5075674;28;20226;-64
2021/04/28 01:16:50;;;;;;;8.95;5.70;;;;;;;;;;5075335;28;20562;-65
2021/04/28 01:19:17;;;;;;;9.07;4.97;;;;;;;;;;5075473;28;20261;-65
2021/04/28 01:21:43;;;;;;;6.75;5.28;;;;;;;;;;5075165;28;20202;-65
2021/04/28 01:24:10;;;;;;;9.48;4.88;;;;;;;;;;5075381;28;20540;-65
2021/04/28 01:26:37;;;;;;;7.47;4.75;;;;;;;;;;5075117;28;20311;-64
2021/04/28 01:29:04;;;;;;;9.80;4.72;;;;;;;;;;5075093;28;20739;-65
2021/04/28 01:31:33;;;;;;;6.00;5.03;;;;;;;;;;5075350;28;20210;-65
2021/04/28 01:34:00;;;;;;;5.53;4.70;;;;;;;;;;5075192;28;20554;-65
2021/04/28 01:36:33;;;;;;;19.33;5.28;;;;;;;;;;5074921;28;20302;-65
2021/04/28 01:39:02;;;;;;;6.30;5.40;;;;;;;;;;5075123;28;20255;-65
2021/04/28 01:41:29;;;;;;;4.28;3.88;;;;;;;;;;5075053;28;20303;-65
2021/04/28 01:43:56;;;;;;;10.60;5.78;;;;;;;;;;5075102;28;20220;-65
2021/04/28 01:46:27;;;;;;;5.30;4.38;;;;;;;;;;5074802;28;20188;-64
2021/04/28 01:48:54;;;;;;;6.97;5.28;;;;;;;;;;5074882;28;20627;-63
2021/04/28 01:51:21;;;;;;;6.13;5.00;;;;;;;;;;5074540;28;20275;-64
2021/04/28 01:53:48;;;;;;;6.93;4.25;;;;;;;;;;5073266;28;20362;-64
2021/04/28 01:56:15;;;;;;;6.57;4.65;;;;;;;;;;5074240;28;20637;-64
2021/04/28 01:58:42;;;;;;;6.78;4.25;;;;;;;;;;5072989;28;20294;-64
2021/04/28 02:01:09;;;;;;;5.43;4.53;;;;;;;;;;5074615;28;20216;-64
2021/04/28 02:03:36;;;;;;;6.28;4.90;;;;;;;;;;5074434;28;20188;-64
2021/04/28 02:06:04;;;;;;;7.47;5.20;;;;;;;;;;5074382;28;20215;-64
2021/04/28 02:08:32;;;;;;;6.90;4.60;;;;;;;;;;5074727;28;20211;-64
2021/04/28 02:10:59;;;;;;;8.52;5.38;;;;;;;;;;5074519;28;20294;-64
2021/04/28 02:13:27;;;;;;;11.25;6.47;;;;;;;;;;5074472;28;20295;-64
2021/04/28 02:15:54;;;;;;;5.95;5.10;;;;;;;;;;5074174;28;20242;-64
2021/04/28 02:18:21;;;;;;;6.03;4.93;;;;;;;;;;5074194;28;20200;-64
2021/04/28 02:20:48;;;;;;;8.15;4.80;;;;;;;;;;5074432;28;20200;-64
2021/04/28 02:23:15;;;;;;;5.68;5.10;;;;;;;;;;5074619;28;20810;-64
2021/04/28 02:25:42;;;;;;;4.70;4.05;;;;;;;;;;5074083;28;20219;-64
2021/04/28 02:28:09;;;;;;;10.68;4.85;;;;;;;;;;5073987;28;20275;-64
2021/04/28 02:30:36;;;;;;;5.53;4.93;;;;;;;;;;5073969;28;20628;-64
2021/04/28 02:33:03;;;;;;;6.75;4.72;;;;;;;;;;5074217;28;20295;-64
2021/04/28 02:35:30;;;;;;;8.50;5.03;;;;;;;;;;5072637;28;20295;-64
2021/04/28 02:38:05;;;;;;;10.10;4.97;;;;;;;;;;5073531;28;20216;-64
2021/04/28 02:40:32;;;;;;;6.03;5.20;;;;;;;;;;5073648;28;20286;-64
2021/04/28 02:42:58;;;;;;;6.70;4.90;;;;;;;;;;5073552;28;20190;-64
2021/04/28 02:45:26;;;;;;;5.63;4.80;;;;;;;;;;5073488;28;20615;-64
2021/04/28 02:47:54;;;;;;;6.22;5.18;;;;;;;;;;5072177;28;20295;-64
2021/04/28 02:50:23;;;;;;;9.05;4.95;;;;;;;;;;5073537;28;20283;-64
2021/04/28 02:52:51;;;;;;;7.95;5.60;;;;;;;;;;5073374;28;20303;-64
2021/04/28 02:55:18;;;;;;;6.28;4.90;;;;;;;;;;5074000;28;20340;-64
2021/04/28 02:57:46;;;;;;;7.25;5.38;;;;;;;;;;5073371;28;20640;-64
2021/04/28 03:00:14;;;;;;;6.93;5.50;;;;;;;;;;5073812;28;20307;-64
2021/04/28 03:02:42;;;;;;;5.80;5.22;;;;;;;;;;5072817;28;20207;-64
2021/04/28 03:05:12;;;;;;;8.70;6.10;;;;;;;;;;5072815;28;20647;-64
2021/04/28 03:07:38;;;;;;;8.18;6.20;;;;;;;;;;5073120;28;20282;-64
2021/04/28 03:10:05;;;;;;;11.52;5.80;;;;;;;;;;5072401;28;20303;-62
2021/04/28 03:12:32;;;;;;;10.40;6.45;;;;;;;;;;5072789;28;20267;-62
2021/04/28 03:14:59;;;;;;;11.10;6.20;;;;;;;;;;5073170;28;20291;-62
2021/04/28 03:17:27;;;;;;;7.53;5.00;;;;;;;;;;5073352;28;20223;-62
2021/04/28 03:19:57;;;;;;;8.00;5.10;;;;;;;;;;5072074;28;20275;-62
2021/04/28 03:22:24;;;;;;;19.52;6.68;;;;;;;;;;5072322;28;20245;-62
2021/04/28 03:24:51;;;;;;;8.40;5.25;;;;;;;;;;5073587;28;20668;-62
2021/04/28 03:27:24;;;;;;;7.05;4.90;;;;;;;;;;5073302;28;20274;-62
2021/04/28 03:29:51;;;;;;;7.05;5.18;;;;;;;;;;5073443;28;20231;-62
2021/04/28 03:32:18;;;;;;;8.77;5.47;;;;;;;;;;5073193;28;20274;-62
2021/04/28 03:34:45;;;;;;;7.22;5.15;;;;;;;;;;5073119;28;20184;-62
2021/04/28 03:37:12;;;;;;;7.55;5.90;;;;;;;;;;5072859;28;20256;-62
2021/04/28 03:39:39;;;;;;;6.25;5.50;;;;;;;;;;5073143;28;20283;-63
2021/04/28 03:42:06;;;;;;;8.93;5.80;;;;;;;;;;5073251;28;20231;-62
2021/04/28 03:44:32;;;;;;;8.23;6.43;;;;;;;;;;5073203;28;20574;-62
2021/04/28 03:47:00;;;;;;;12.07;6.00;;;;;;;;;;5073248;28;20557;-63
2021/04/28 03:49:26;;;;;;;9.30;6.53;;;;;;;;;;5073015;28;20218;-62
2021/04/28 03:51:53;;;;;;;11.35;7.18;;;;;;;;;;5072886;28;20228;-61
2021/04/28 03:54:20;;;;;;;10.40;6.15;;;;;;;;;;5071506;28;20231;-61
2021/04/28 03:56:46;;;;;;;7.88;5.65;;;;;;;;;;5072801;28;20299;-62
2021/04/28 03:59:13;;;;;;;7.22;6.10;;;;;;;;;;5073121;28;20671;-62
2021/04/28 04:01:41;;;;;;;11.80;6.50;;;;;;;;;;5072650;28;20228;-62
2021/04/28 04:04:08;;;;;;;7.00;5.80;;;;;;;;;;5055156;28;20662;-62
2021/04/28 04:06:35;;;;;;;9.10;5.90;;;;;;;;;;5072831;28;20283;-62
2021/04/28 04:09:01;;;;;;;10.73;6.50;;;;;;;;;;5072870;28;20290;-62
2021/04/28 04:11:29;;;;;;;7.88;5.00;;;;;;;;;;5072676;28;20648;-62
2021/04/28 04:13:56;;;;;;;22.00;5.60;;;;;;;;;;5072789;28;20200;-62
2021/04/28 04:16:22;;;;;;;8.60;6.00;;;;;;;;;;5072513;28;20274;-62
2021/04/28 04:18:49;;;;;;;14.07;7.25;;;;;;;;;;5074290;28;20214;-63
2021/04/28 04:21:16;;;;;;;21.27;8.07;;;;;;;;;;5074289;28;20230;-61
2021/04/28 04:23:42;;;;;;;10.13;7.80;;;;;;;;;;5076371;28;20280;-62
2021/04/28 04:26:09;;;;;;;12.27;7.10;;;;;;;;;;5076611;28;20303;-64
2021/04/28 04:28:36;;;;;;;7.13;5.35;;;;;;;;;;5076557;28;20283;-64
2021/04/28 04:31:03;;;;;;;7.40;5.45;;;;;;;;;;5076497;28;20299;-64
2021/04/28 04:33:29;;;;;;;9.60;5.35;;;;;;;;;;5076333;28;20196;-64
2021/04/28 04:35:56;;;;;;;6.90;6.30;;;;;;;;;;5076490;28;20656;-64
2021/04/28 04:38:23;;;;;;;10.00;6.45;;;;;;;;;;5074789;28;20228;-64
2021/04/28 04:40:49;;;;;;;9.52;6.35;;;;;;;;;;5076040;28;20675;-63
2021/04/28 04:43:16;;;;;;;8.90;6.45;;;;;;;;;;5061111;28;20257;-65
2021/04/28 04:45:43;;;;;;;9.52;6.18;;;;;;;;;;5075469;28;20282;-65
2021/04/28 04:48:10;;;;;;;10.77;5.55;;;;;;;;;;5075290;28;20200;-65
2021/04/28 04:50:37;;;;;;;10.23;5.88;;;;;;;;;;5075451;28;20192;-65
2021/04/28 04:53:04;;;;;;;10.05;6.25;;;;;;;;;;5075174;28;20238;-65
2021/04/28 04:55:31;;;;;;;10.63;5.40;;;;;;;;;;5075323;28;20188;-65
2021/04/28 04:57:58;;;;;;;15.38;6.60;;;;;;;;;;5075226;28;20216;-65
2021/04/28 05:00:25;;;;;;;13.35;6.78;;;;;;;;;;5069806;28;20215;-65
2021/04/28 05:02:51;;;;;;;8.18;6.57;;;;;;;;;;5066618;28;20295;-65
2021/04/28 05:05:18;;;;;;;7.53;6.70;;;;;;;;;;5071690;28;20666;-65
2021/04/28 05:07:45;;;;;;;8.40;6.18;;;;;;;;;;5064919;28;20278;-65
2021/04/28 05:10:13;;;;;;;7.05;5.65;;;;;;;;;;5074880;28;20708;-65
2021/04/28 05:12:39;;;;;;;8.95;6.20;;;;;;;;;;5075333;28;20239;-65
2021/04/28 05:15:07;;;;;;;7.03;6.32;;;;;;;;;;5075197;28;20216;-65
2021/04/28 05:17:33;;;;;;;9.38;8.27;;;;;;;;;;5069794;28;20220;-65
2021/04/28 05:20:00;;;;;;;12.27;7.80;;;;;;;;;;5066027;28;20270;-65
2021/04/28 05:22:30;;;;;;;10.60;7.43;;;;;;;;;;5063731;28;20203;-64
2021/04/28 05:24:57;;;;;;;9.07;6.63;;;;;;;;;;5075894;28;20207;-64
2021/04/28 05:27:26;;;;;;;9.07;6.13;;;;;;;;;;5072833;28;20287;-64
2021/04/28 05:29:55;;;;;;;11.90;6.63;;;;;;;;;;5063721;28;20256;-64
2021/04/28 05:32:22;;;;;;;9.43;6.40;;;;;;;;;;5074020;28;20659;-64
2021/04/28 05:34:49;;;;;;;11.38;7.13;;;;;;;;;;5074687;28;20192;-64
2021/04/28 05:37:18;;;;;;;7.45;6.68;;;;;;;;;;5075149;28;20580;-64
2021/04/28 05:39:46;;;;;;;18.55;7.32;;;;;;;;;;5074316;28;20245;-64
2021/04/28 05:42:13;;;;;;;10.43;5.78;;;;;;;;;;5074892;28;20226;-64
2021/04/28 05:44:40;;;;;;;10.88;7.40;;;;;;;;;;5075400;28;20273;-65
2021/04/28 05:47:07;;;;;;;7.63;6.50;;;;;;;;;;5075155;28;20204;-64
2021/04/28 05:49:34;;;;;;;17.33;6.47;;;;;;;;;;5074865;28;20219;-65
2021/04/28 05:52:01;;;;;;;26.25;6.53;;;;;;;;;;5075027;28;20228;-64
2021/04/28 05:54:28;;;;;;;18.80;5.70;;;;;;;;;;5074985;28;20287;-65
2021/04/28 05:56:56;;;;;;;8.63;6.80;;;;;;;;;;5074497;28;20236;-65
2021/04/28 05:59:22;;;;;;;6.78;6.03;;;;;;;;;;5074828;28;20224;-65
2021/04/28 06:01:49;;;;;;;17.00;7.38;;;;;;;;;;5074791;28;20246;-65
2021/04/28 06:04:16;;;;;;;14.50;6.75;;;;;;;;;;5074449;28;20656;-66
2021/04/28 06:06:43;;;;;;;11.13;8.27;;;;;;;;;;5073062;28;20227;-65
2021/04/28 06:09:10;;;;;;;10.73;6.05;;;;;;;;;;5074564;28;20210;-65
2021/04/28 06:11:37;;;;;;;12.30;7.93;;;;;;;;;;5073109;28;20196;-65
2021/04/28 06:14:04;;;;;;;10.80;6.97;;;;;;;;;;5074511;28;20193;-65
2021/04/28 06:16:31;;;;;;;8.52;5.80;;;;;;;;;;5074382;28;20192;-65
2021/04/28 06:18:58;;;;;;;9.23;6.15;;;;;;;;;;5074497;28;20204;-65
2021/04/28 06:21:24;;;;;;;11.65;7.07;;;;;;;;;;5074208;28;20189;-65
2021/04/28 06:23:51;;;;;;;12.32;6.70;;;;;;;;;;5073305;28;20208;-65
2021/04/28 06:26:18;;;;;;;11.80;7.07;;;;;;;;;;5073044;28;20210;-65
2021/04/28 06:28:45;;;;;;;10.60;6.88;;;;;;;;;;5074404;28;20208;-65
2021/04/28 06:31:12;;;;;;;9.85;7.65;;;;;;;;;;5074587;28;20682;-65
2021/04/28 06:33:42;;;;;;;19.58;7.53;;;;;;;;;;5073825;28;20196;-65
2021/04/28 06:36:09;;;;;;;22.27;7.40;;;;;;;;;;5074094;28;20236;-65
2021/04/28 06:38:37;;;;;;;11.02;7.20;;;;;;;;;;5073750;28;20265;-65
2021/04/28 06:41:04;;;;;;;69.65;9.80;;;;;;;;;;5073639;28;20230;-65
2021/04/28 06:43:30;;;;;;;63.88;11.48;;;;;;;;;;5073507;28;20188;-65
2021/04/28 06:45:58;;;;;;;43.78;9.60;;;;;;;;;;5073910;28;20207;-65
2021/04/28 06:48:25;;;;;;;13.90;6.97;;;;;;;;;;5063533;28;20210;-65
2021/04/28 06:50:52;;;;;;;13.50;7.10;;;;;;;;;;5069098;28;20570;-65
2021/04/28 06:53:19;;;;;;;8.45;7.35;;;;;;;;;;5073047;28;20687;-65
2021/04/28 06:55:45;;;;;;;8.07;7.20;;;;;;;;;;5073181;28;20196;-65
2021/04/28 06:58:12;;;;;;;9.88;6.93;;;;;;;;;;5073168;28;20223;-66
2021/04/28 07:00:39;;;;;;;9.60;7.55;;;;;;;;;;5072996;28;20287;-65
2021/04/28 07:03:06;;;;;;;19.20;8.52;;;;;;;;;;5073686;28;20196;-64
2021/04/28 07:05:32;;;;;;;14.88;7.88;;;;;;;;;;5073081;28;20195;-65
2021/04/28 07:07:59;;;;;;;10.35;7.45;;;;;;;;;;5073517;28;20613;-65
2021/04/28 07:10:26;;;;;;;8.15;7.00;;;;;;;;;;5073184;28;20242;-65
2021/04/28 07:12:53;;;;;;;32.85;9.55;;;;;;;;;;5073369;28;20223;-65
2021/04/28 07:15:20;;;;;;;49.40;9.32;;;;;;;;;;5073760;28;20192;-65
2021/04/28 07:17:47;;;;;;;34.05;8.05;;;;;;;;;;5073453;28;20574;-65
2021/04/28 07:20:14;;;;;;;12.25;7.35;;;;;;;;;;5072879;28;20662;-65
2021/04/28 07:22:42;;;;;;;16.15;8.00;;;;;;;;;;5074519;28;20621;-65
2021/04/28 07:25:09;;;;;;;8.70;7.25;;;;;;;;;;5070238;28;20660;-65
2021/04/28 07:27:36;;;;;;;26.02;8.65;;;;;;;;;;5062831;28;20643;-65
2021/04/28 07:30:03;;;;;;;68.95;11.52;;;;;;;;;;5073005;28;20194;-62
2021/04/28 07:32:30;;;;;;;20.25;8.65;;;;;;;;;;5072931;28;20215;-63
2021/04/28 07:34:56;;;;;;;10.90;8.30;;;;;;;;;;5073215;28;20195;-64
2021/04/28 07:37:23;;;;;;;16.40;8.18;;;;;;;;;;5072734;28;20212;-63
2021/04/28 07:39:49;;;;;;;8.20;7.15;;;;;;;;;;5072889;28;20204;-63
2021/04/28 07:42:16;;;;;;;15.93;8.40;;;;;;;;;;5058925;28;20295;-63
2021/04/28 07:44:43;;;;;;;12.48;8.65;;;;;;;;;;5074062;28;20242;-63
2021/04/28 07:47:09;;;;;;;8.38;7.30;;;;;;;;;;5072852;28;20199;-63
2021/04/28 07:49:36;;;;;;;9.40;7.93;;;;;;;;;;5073386;28;20667;-63
2021/04/28 07:52:03;;;;;;;17.30;7.80;;;;;;;;;;5073035;28;20592;-63
2021/04/28 07:54:29;;;;;;;17.00;8.07;;;;;;;;;;5073838;28;20200;-64
2021/04/28 07:56:56;;;;;;;9.45;7.45;;;;;;;;;;5077312;28;20192;-64
2021/04/28 07:59:23;;;;;;;17.65;8.30;;;;;;;;;;5078408;28;20561;-64
2021/04/28 08:01:50;;;;;;;13.80;7.15;;;;;;;;;;5078661;28;20200;-64
2021/04/28 08:04:16;;;;;;;9.73;8.40;;;;;;;;;;5078154;28;20212;-64
2021/04/28 08:06:43;;;;;;;8.35;7.55;;;;;;;;;;5078518;28;20222;-68
2021/04/28 08:09:10;;;;;;;12.60;8.38;;;;;;;;;;5077436;28;20200;-63
2021/04/28 08:11:36;;;;;;;10.75;7.13;;;;;;;;;;5077408;28;20597;-64
2021/04/28 08:14:03;;;;;;;11.10;8.52;;;;;;;;;;5077100;28;20212;-64
2021/04/28 08:16:32;;;;;;;19.50;9.80;;;;;;;;;;5072938;28;20215;-64
2021/04/28 08:18:59;;;;;;;21.63;7.45;;;;;;;;;;5057319;28;20691;-65
2021/04/28 08:21:26;;;;;;;18.13;9.02;;;;;;;;;;5056491;28;20201;-64
2021/04/28 08:23:53;;;;;;;10.80;7.13;;;;;;;;;;5072263;28;20209;-65
2021/04/28 08:26:19;;;;;;;11.20;7.77;;;;;;;;;;5069889;28;20964;-67
2021/04/28 08:28:47;;;;;;;48.47;9.17;;;;;;;;;;5064265;28;20625;-66
2021/04/28 08:31:14;;;;;;;10.52;7.25;;;;;;;;;;5077783;28;20593;-64
2021/04/28 08:33:41;;;;;;;10.60;7.87;;;;;;;;;;5078733;28;20606;-63
2021/04/28 08:36:08;;;;;;;12.63;7.73;;;;;;;;;;5078103;28;20610;-64
2021/04/28 08:38:36;;;;;;;16.10;9.10;;;;;;;;;;5077663;28;20638;-64
2021/04/28 08:41:04;;;;;;;14.13;9.10;;;;;;;;;;5076743;28;20643;-64
2021/04/28 08:43:31;;;;;;;11.63;8.23;;;;;;;;;;5076418;28;20625;-64
2021/04/28 08:46:01;;;;;;;12.27;9.30;;;;;;;;;;5076699;28;20585;-64
2021/04/28 08:48:29;;;;;;;15.00;9.60;;;;;;;;;;5076593;28;20594;-64
2021/04/28 08:50:56;;;;;;;19.40;9.97;;;;;;;;;;5077395;28;20601;-64
2021/04/28 08:53:24;;;;;;;14.80;10.20;;;;;;;;;;5076403;28;20642;-64
2021/04/28 08:55:51;;;;;;;24.90;11.63;;;;;;;;;;5076391;28;20608;-64
2021/04/28 08:58:20;;;;;;;27.63;11.10;;;;;;;;;;5075508;28;20772;-64
2021/04/28 09:00:47;;;;;;;14.23;11.23;;;;;;;;;;5076618;28;20717;-64
2021/04/28 09:03:16;;;;;;;306.93;25.93;;;;;;;;;;5076424;28;20590;-64
2021/04/28 09:05:44;;;;;;;26.70;11.13;;;;;;;;;;5075851;28;20617;-64
2021/04/28 09:08:12;;;;;;;18.47;11.13;;;;;;;;;;5075461;28;20617;-64
2021/04/28 09:10:39;;;;;;;23.30;10.00;;;;;;;;;;5076355;28;20618;-63
2021/04/28 09:13:10;;;;;;;23.03;10.97;;;;;;;;;;5076296;28;20616;-62
2021/04/28 09:15:39;;;;;;;14.60;9.30;;;;;;;;;;5076289;28;20622;-63
2021/04/28 09:18:07;;;;;;;14.13;10.67;;;;;;;;;;5075823;28;21000;-63
2021/04/28 09:20:36;;;;;;;14.73;9.53;;;;;;;;;;5075828;28;21002;-62
2021/04/28 09:23:08;;;;;;;16.83;9.83;;;;;;;;;;5076163;28;20590;-63
2021/04/28 09:25:35;;;;;;;18.80;11.00;;;;;;;;;;5076269;28;20621;-63
2021/04/28 09:28:37;;;;;;;22.33;10.93;;;;;;;;;;5075717;28;20653;-62
2021/04/28 09:31:06;;;;;;;22.80;12.10;;;;;;;;;;5073940;28;21098;-63
2021/04/28 09:33:42;;;;;;;19.33;10.37;;;;;;;;;;5074297;28;21144;-63
2021/04/28 09:36:11;;;;;;;16.00;10.03;;;;;;;;;;5075451;28;20939;-64
2021/04/28 09:38:58;;;;;;;14.07;10.50;;;;;;;;;;5075375;28;20664;-63
2021/04/28 09:41:31;;;;;;;24.27;11.13;;;;;;;;;;5075627;28;20646;-64
2021/04/28 09:43:58;;;;;;;15.10;10.60;;;;;;;;;;5076286;28;20701;-64
2021/04/28 09:46:25;;;;;;;15.73;10.60;;;;;;;;;;5075234;28;20598;-64
2021/04/28 09:48:58;;;;;;;16.33;11.50;;;;;;;;;;5075912;28;20602;-64
2021/04/28 09:51:31;;;;;;;23.03;10.90;;;;;;;;;;5075544;28;20618;-64
2021/04/28 09:54:11;;;;;;;17.57;11.30;;;;;;;;;;5075313;28;20582;-64
2021/04/28 09:56:38;;;;;;;19.00;13.03;;;;;;;;;;5075030;28;20956;-64
2021/04/28 09:59:05;;;;;;;21.87;11.80;;;;;;;;;;5073106;28;20649;-63
2021/04/28 10:01:33;;;;;;;15.73;11.40;;;;;;;;;;5074996;28;20589;-64
2021/04/28 10:04:01;;;;;;;15.57;11.30;;;;;;;;;;5075124;28;21159;-64
2021/04/28 10:06:47;;;;;;;16.23;11.73;;;;;;;;;;5059699;28;20977;-63
2021/04/28 10:09:34;;;;;;;14.07;11.60;;;;;;;;;;5074367;28;20621;-62
2021/04/28 10:12:05;;;;;;;19.00;13.13;;;;;;;;;;5062658;28;20625;-63
2021/04/28 10:14:33;;;;;;;17.00;11.60;;;;;;;;;;5074027;28;20616;-64
2021/04/28 10:17:00;;;;;;;18.90;11.53;;;;;;;;;;5064020;28;20629;-64
2021/04/28 10:19:27;;;;;;;25.20;12.63;;;;;;;;;;5070452;28;20657;-64
2021/04/28 10:21:57;;;;;;;16.87;11.60;;;;;;;;;;5073751;28;20625;-63
2021/04/28 10:24:24;;;;;;;15.83;11.30;;;;;;;;;;5074335;28;20635;-64
2021/04/28 10:26:51;;;;;;;51.60;14.13;;;;;;;;;;5074675;28;21184;-63
2021/04/28 10:29:19;;;;;;;18.90;12.80;;;;;;;;;;5074461;28;20622;-63
2021/04/28 10:31:46;;;;;;;27.43;11.70;;;;;;;;;;5074809;28;20992;-63
2021/04/28 10:34:15;;;;;;;57.67;15.47;;;;;;;;;;5074024;28;20976;-64
2021/04/28 10:36:43;;;;;;;19.07;11.80;;;;;;;;;;5073864;28;20602;-63
2021/04/28 10:39:10;;;;;;;19.33;11.60;;;;;;;;;;5073756;28;20650;-63
2021/04/28 10:41:42;;;;;;;85.03;15.50;;;;;;;;;;5073734;28;20622;-64
2021/04/28 10:44:28;;;;;;;31.90;10.97;;;;;;;;;;5074359;28;21144;-63
2021/04/28 10:47:14;;;;;;;39.87;13.77;;;;;;;;;;5073177;28;20634;-64
2021/04/28 10:49:59;;;;;;;15.10;10.83;;;;;;;;;;5074112;28;20610;-64
2021/04/28 10:52:32;;;;;;;15.40;12.57;;;;;;;;;;5073455;28;20680;-64
2021/04/28 10:54:59;;;;;;;16.33;10.70;;;;;;;;;;5073748;28;21236;-64
2021/04/28 10:57:33;;;;;;;14.87;10.77;;;;;;;;;;5073802;28;20594;-64
2021/04/28 11:00:00;;;;;;;13.70;10.53;;;;;;;;;;5073612;28;21039;-64
2021/04/28 11:02:31;;;;;;;16.07;10.70;;;;;;;;;;5073821;28;20619;-64
2021/04/28 11:05:04;;;;;;;25.13;12.30;;;;;;;;;;5074090;28;20604;-64
2021/04/28 11:07:41;;;;;;;12.20;9.97;;;;;;;;;;5074166;28;20636;-64
2021/04/28 11:10:26;;;;;;;10.20;8.87;;;;;;;;;;5073683;28;20594;-62
2021/04/28 11:13:04;;;;;;;12.23;7.70;;;;;;;;;;5073818;28;20655;-63
2021/04/28 11:15:50;;;;;;;15.43;8.90;;;;;;;;;;5073555;28;20608;-63
2021/04/28 11:18:29;;;;;;;9.83;8.80;;;;;;;;;;5072236;28;20654;-62
2021/04/28 11:21:14;;;;;;;45.53;9.90;;;;;;;;;;5073335;28;20629;-63
2021/04/28 11:24:00;;;;;;;10.03;8.50;;;;;;;;;;5073781;28;21196;-62
2021/04/28 11:26:30;;;;;;;10.67;8.10;;;;;;;;;;5073712;28;21131;-63
2021/04/28 11:29:00;;;;;;;11.83;8.10;;;;;;;;;;5073135;28;20753;-63
2021/04/28 11:31:41;;;;;;;11.87;7.80;;;;;;;;;;5073028;28;20559;-63
2021/04/28 11:34:26;;;;;;;9.67;7.90;;;;;;;;;;5073701;28;20643;-63
2021/04/28 11:36:57;;;;;;;15.63;8.73;;;;;;;;;;5073379;28;20647;-64
2021/04/28 11:39:42;;;;;;;11.53;8.30;;;;;;;;;;5073287;28;20567;-63
2021/04/28 11:42:10;;;;;;;40.70;9.77;;;;;;;;;;5073707;28;20708;-62
2021/04/28 11:44:47;;;;;;;23.90;8.80;;;;;;;;;;5073034;28;20640;-63
2021/04/28 11:47:16;;;;;;;14.17;9.30;;;;;;;;;;5073242;28;20621;-63
2021/04/28 11:49:43;;;;;;;11.63;9.30;;;;;;;;;;5073400;28;20661;-62
2021/04/28 11:52:11;;;;;;;15.13;9.40;;;;;;;;;;5073293;28;20660;-63
2021/04/28 11:54:38;;;;;;;11.60;10.40;;;;;;;;;;5073506;28;20582;-63
2021/04/28 11:57:05;;;;;;;20.33;10.30;;;;;;;;;;5073069;28;20652;-63
2021/04/28 11:59:34;;;;;;;11.83;9.50;;;;;;;;;;5072970;28;20610;-62
2021/04/28 12:02:05;;;;;;;11.77;8.53;;;;;;;;;;5071693;28;20637;-62
2021/04/28 12:04:35;;;;;;;73.17;13.27;;;;;;;;;;5059879;28;20652;-62
2021/04/28 12:07:02;;;;;;;100.93;13.50;;;;;;;;;;5072293;28;20625;-63
2021/04/28 12:09:44;;;;;;;14.07;10.80;;;;;;;;;;5059291;28;20641;-63
2021/04/28 12:12:23;;;;;;;31.63;9.47;;;;;;;;;;5072683;28;20615;-62
2021/04/28 12:15:05;;;;;;;45.60;12.20;;;;;;;;;;5072554;28;20982;-63
2021/04/28 12:17:41;;;;;;;33.43;10.13;;;;;;;;;;5072598;28;20617;-64
2021/04/28 12:20:09;;;;;;;11.20;10.00;;;;;;;;;;5072658;28;20983;-63
2021/04/28 12:22:36;;;;;;;16.10;9.10;;;;;;;;;;5072667;28;20968;-63
2021/04/28 12:25:04;;;;;;;163.97;16.17;;;;;;;;;;5072735;28;21140;-62
2021/04/28 12:27:32;;;;;;;23.27;10.07;;;;;;;;;;5072362;28;20595;-64
2021/04/28 12:30:00;;;;;;;8.77;7.90;;;;;;;;;;5072478;28;20610;-61
2021/04/28 12:32:34;;;;;;;34.80;9.80;;;;;;;;;;5072738;28;20617;-62
2021/04/28 12:35:14;;;;;;;9.87;7.33;;;;;;;;;;5072589;28;20620;-63
2021/04/28 12:37:41;;;;;;;10.60;7.60;;;;;;;;;;5072904;28;20610;-63
2021/04/28 12:40:12;;;;;;;7.60;6.80;;;;;;;;;;5072193;28;20629;-64
2021/04/28 12:42:40;;;;;;;8.50;7.57;;;;;;;;;;5075275;28;20558;-63
2021/04/28 12:45:12;;;;;;;7.93;7.13;;;;;;;;;;5076078;28;20621;-63
2021/04/28 12:47:39;;;;;;;10.80;8.13;;;;;;;;;;5075603;28;20633;-62
2021/04/28 12:50:24;;;;;;;16.80;7.57;;;;;;;;;;5075914;28;20610;-63
2021/04/28 12:52:52;;;;;;;27.13;8.07;;;;;;;;;;5075766;28;21236;-63
2021/04/28 12:55:32;;;;;;;9.17;6.37;;;;;;;;;;5075936;28;20628;-63
2021/04/28 12:58:00;;;;;;;30.07;7.40;;;;;;;;;;5075440;28;20625;-62
2021/04/28 13:00:29;;;;;;;35.33;7.20;;;;;;;;;;5075553;28;20644;-62
2021/04/28 13:03:13;;;;;;;7.73;6.57;;;;;;;;;;5075486;28;20633;-64
2021/04/28 13:05:41;;;;;;;7.13;5.20;;;;;;;;;;5075834;28;20614;-63
2021/04/28 13:08:17;;;;;;;5.80;5.03;;;;;;;;;;5075339;28;20657;-63
2021/04/28 13:11:02;;;;;;;6.70;6.10;;;;;;;;;;5075327;28;20692;-63
2021/04/28 13:13:30;;;;;;;6.63;5.93;;;;;;;;;;5074444;28;20628;-64
2021/04/28 13:15:56;;;;;;;6.87;6.10;;;;;;;;;;5075459;28;20624;-64
2021/04/28 13:18:23;;;;;;;173.30;13.90;;;;;;;;;;5075963;28;20608;-64
2021/04/28 13:20:50;;;;;;;7.13;5.30;;;;;;;;;;5075189;28;20645;-63
2021/04/28 13:23:18;;;;;;;7.20;5.30;;;;;;;;;;5075097;28;20630;-63
2021/04/28 13:25:51;;;;;;;7.50;5.77;;;;;;;;;;5075605;28;21085;-63
2021/04/28 13:28:31;;;;;;;6.20;5.60;;;;;;;;;;5075304;28;20674;-63
2021/04/28 13:31:17;;;;;;;11.27;5.57;;;;;;;;;;5075227;28;20717;-64
2021/04/28 13:33:43;;;;;;;8.13;6.07;;;;;;;;;;5074861;28;20638;-63
2021/04/28 13:36:22;;;;;;;32.40;6.80;;;;;;;;;;5075440;28;20709;-64
2021/04/28 13:38:50;;;;;;;10.13;5.80;;;;;;;;;;5075310;28;20610;-63
2021/04/28 13:41:17;;;;;;;13.10;5.90;;;;;;;;;;5075208;28;21072;-63
2021/04/28 13:43:44;;;;;;;11.03;5.90;;;;;;;;;;5075257;28;21137;-63
2021/04/28 13:46:10;;;;;;;7.27;5.83;;;;;;;;;;5075225;28;20601;-62
2021/04/28 13:48:38;;;;;;;16.77;7.00;;;;;;;;;;5074656;28;20807;-62
2021/04/28 13:51:06;;;;;;;27.97;5.77;;;;;;;;;;5074866;28;20717;-63
2021/04/28 13:53:33;;;;;;;6.47;4.50;;;;;;;;;;5073902;28;20664;-63
2021/04/28 13:55:59;;;;;;;9.57;5.60;;;;;;;;;;5074841;28;20605;-62
2021/04/28 13:58:26;;;;;;;5.73;4.63;;;;;;;;;;5074600;28;20625;-63
2021/04/28 14:00:53;;;;;;;80.20;10.90;;;;;;;;;;5073379;28;20709;-62
2021/04/28 14:03:19;;;;;;;4.70;4.30;;;;;;;;;;5074552;28;20614;-62
2021/04/28 14:05:46;;;;;;;9.80;4.63;;;;;;;;;;5073218;28;20603;-63
2021/04/28 14:08:14;;;;;;;3.80;3.37;;;;;;;;;;5074729;28;20654;-63
2021/04/28 14:10:40;;;;;;;9.63;4.70;;;;;;;;;;5074347;28;20617;-63
2021/04/28 14:13:08;;;;;;;4.13;3.80;;;;;;;;;;5073853;28;20622;-62
2021/04/28 14:15:34;;;;;;;8.43;4.57;;;;;;;;;;5072590;28;20618;-62
2021/04/28 14:18:01;;;;;;;9.40;4.77;;;;;;;;;;5073898;28;20633;-63
2021/04/28 14:20:28;;;;;;;6.33;4.30;;;;;;;;;;5074307;28;21179;-64
2021/04/28 14:22:55;;;;;;;5.20;4.67;;;;;;;;;;5073869;28;20618;-63
2021/04/28 14:25:22;;;;;;;7.40;5.73;;;;;;;;;;5073981;28;20621;-63
2021/04/28 14:27:49;;;;;;;4.90;4.43;;;;;;;;;;5072813;28;20907;-63
2021/04/28 14:30:16;;;;;;;5.87;4.90;;;;;;;;;;5060295;28;20665;-63
2021/04/28 14:32:42;;;;;;;7.30;4.87;;;;;;;;;;5074043;28;20610;-64
2021/04/28 14:35:09;;;;;;;6.77;5.13;;;;;;;;;;5073394;28;20622;-63
2021/04/28 14:37:36;;;;;;;4.83;4.37;;;;;;;;;;5073576;28;20614;-63
2021/04/28 14:40:03;;;;;;;7.70;4.67;;;;;;;;;;5053858;28;20643;-63
2021/04/28 14:42:29;;;;;;;4.90;4.40;;;;;;;;;;5065281;28;20618;-63